createdAt,value
2018-12-14T00:02:04.769Z,66.27
2018-12-14T00:07:12.362Z,66.77
2018-12-14T00:12:18.011Z,66.53
2018-12-14T00:17:23.591Z,66.51
2018-12-14T00:22:30.062Z,67.65
2018-12-14T00:27:35.613Z,67.88
2018-12-14T00:32:41.244Z,68.01
2018-12-14T00:37:47.188Z,68.11
2018-12-14T00:42:52.807Z,67.69
2018-12-14T00:47:57.781Z,68.25
2018-12-14T00:53:03.823Z,68.07
2018-12-14T00:58:08.813Z,65.78
2018-12-14T01:03:14.828Z,66.23
2018-12-14T01:08:20.087Z,66.75
2018-12-14T01:13:25.365Z,66.81
2018-12-14T01:18:30.691Z,66.94
2018-12-14T01:23:35.663Z,67.58
2018-12-14T01:28:40.565Z,67.69
2018-12-14T01:33:46.257Z,66.66
2018-12-14T01:38:51.181Z,67.64
2018-12-14T01:43:56.154Z,66.75
2018-12-14T01:49:01.905Z,67.42
2018-12-14T01:54:07.696Z,67.90
2018-12-14T01:59:12.612Z,66.30
2018-12-14T02:04:17.855Z,66.57
2018-12-14T02:09:22.890Z,65.18
2018-12-14T02:14:28.286Z,63.90
2018-12-14T02:19:34.031Z,64.96
2018-12-14T02:24:40.083Z,65.56
2018-12-14T02:29:45.074Z,64.10
2018-12-14T02:34:50.521Z,64.36
2018-12-14T02:39:55.488Z,65.23
2018-12-14T02:45:00.767Z,64.22
2018-12-14T02:50:08.347Z,64.69
2018-12-14T02:55:13.613Z,64.10
2018-12-14T03:00:18.542Z,63.85
2018-12-14T03:05:23.615Z,64.73
2018-12-14T03:10:28.728Z,64.76
2018-12-14T03:15:33.618Z,64.29
2018-12-14T03:20:38.720Z,62.94
2018-12-14T03:25:44.049Z,62.82
2018-12-14T03:30:48.983Z,62.88
2018-12-14T03:35:53.994Z,63.36
2018-12-14T03:40:58.957Z,64.39
2018-12-14T03:46:03.974Z,63.55
2018-12-14T03:51:08.989Z,63.83
2018-12-14T03:56:15.179Z,63.28
2018-12-14T04:01:20.170Z,64.03
2018-12-14T04:06:25.146Z,63.92
2018-12-14T04:11:32.207Z,64.05
2018-12-14T04:16:37.075Z,63.84
2018-12-14T04:21:42.006Z,65.76
2018-12-14T04:26:47.607Z,65.96
2018-12-14T04:31:52.726Z,65.34
2018-12-14T04:36:58.305Z,65.67
2018-12-14T04:42:04.225Z,65.38
2018-12-14T04:47:09.378Z,65.89
2018-12-14T04:52:14.417Z,65.52
2018-12-14T04:57:20.459Z,66.36
2018-12-14T05:02:25.255Z,66.58
2018-12-14T05:07:30.246Z,65.11
2018-12-14T05:12:35.291Z,65.63
2018-12-14T05:17:40.287Z,65.30
2018-12-14T05:22:45.293Z,66.22
2018-12-14T05:27:50.232Z,65.95
2018-12-14T05:32:55.115Z,66.71
2018-12-14T05:38:00.005Z,65.93
2018-12-14T05:43:05.095Z,65.81
2018-12-14T05:48:10.749Z,65.96
2018-12-14T05:53:15.971Z,65.52
2018-12-14T05:58:21.707Z,66.01
2018-12-14T06:03:26.714Z,66.30
2018-12-14T06:08:32.050Z,65.83
2018-12-14T06:13:37.014Z,66.00
2018-12-14T06:18:42.007Z,65.54
2018-12-14T06:23:46.974Z,65.11
2018-12-14T06:28:51.893Z,66.04
2018-12-14T06:33:56.837Z,66.32
2018-12-14T06:39:01.993Z,66.04
2018-12-14T06:44:07.246Z,65.91
2018-12-14T06:49:12.219Z,66.58
2018-12-14T06:59:28.816Z,66.11
2018-12-14T07:04:34.854Z,65.96
2018-12-14T07:09:40.180Z,66.18
2018-12-14T07:14:45.726Z,66.95
2018-12-14T07:19:50.607Z,66.65
2018-12-14T07:24:55.533Z,66.82
2018-12-14T07:30:08.693Z,67.02
2018-12-14T07:35:13.650Z,67.42
2018-12-14T07:40:18.711Z,67.03
2018-12-14T07:45:23.909Z,65.79
2018-12-14T07:50:29.110Z,65.56
2018-12-14T07:55:34.032Z,66.70
2018-12-14T08:00:39.617Z,67.19
2018-12-14T08:05:44.581Z,65.99
2018-12-14T08:10:49.580Z,66.23
2018-12-14T08:15:54.733Z,67.12
2018-12-14T08:20:59.688Z,67.55
2018-12-14T08:26:04.859Z,67.33
2018-12-14T08:31:10.783Z,67.17
2018-12-14T08:36:16.017Z,67.18
2018-12-14T08:41:21.064Z,66.14
2018-12-14T08:46:26.624Z,66.84
2018-12-14T08:51:31.862Z,65.39
2018-12-14T08:56:36.826Z,65.96
2018-12-14T09:01:43.059Z,65.79
2018-12-14T09:06:47.984Z,65.01
2018-12-14T09:11:52.940Z,65.09
2018-12-14T09:16:57.941Z,65.99
2018-12-14T09:22:03.733Z,64.45
2018-12-14T09:27:09.323Z,64.42
2018-12-14T09:32:14.281Z,64.26
2018-12-14T09:37:19.204Z,64.25
2018-12-14T09:42:24.119Z,63.80
2018-12-14T09:47:29.376Z,63.10
2018-12-14T09:52:34.297Z,63.70
2018-12-14T09:57:39.914Z,63.33
2018-12-14T10:02:45.642Z,63.63
2018-12-14T10:07:50.632Z,63.00
2018-12-14T10:12:55.541Z,63.22
2018-12-14T10:18:00.459Z,63.21
2018-12-14T10:23:06.075Z,62.54
2018-12-14T10:28:11.047Z,62.67
2018-12-14T10:33:17.019Z,61.29
2018-12-14T10:38:22.363Z,61.80
2018-12-14T10:43:27.283Z,61.53
2018-12-14T10:48:32.619Z,61.60
2018-12-14T10:53:38.617Z,61.39
2018-12-14T11:04:54.050Z,61.33
2018-12-14T11:09:58.988Z,61.10
2018-12-14T11:15:06.390Z,61.20
2018-12-14T11:20:12.301Z,60.90
2018-12-14T11:25:17.292Z,61.60
2018-12-14T11:30:22.202Z,61.66
2018-12-14T11:35:27.175Z,61.30
2018-12-14T11:40:32.222Z,61.33
2018-12-14T11:45:37.423Z,61.44
2018-12-14T11:50:42.548Z,59.68
2018-12-14T11:55:47.421Z,59.69
2018-12-14T12:00:52.386Z,59.81
2018-12-14T12:05:59.902Z,59.31
2018-12-14T12:11:05.852Z,58.89
2018-12-14T12:16:10.824Z,59.81
2018-12-14T12:21:16.133Z,57.57
2018-12-14T12:26:21.754Z,56.81
2018-12-14T12:31:26.991Z,56.73
2018-12-14T12:36:32.547Z,55.45
2018-12-14T12:41:38.435Z,55.53
2018-12-14T12:46:43.747Z,56.11
2018-12-14T12:51:49.103Z,55.38
2018-12-14T12:56:54.195Z,54.41
2018-12-14T13:01:59.348Z,55.78
2018-12-14T13:12:33.320Z,55.72
2018-12-14T13:17:39.348Z,56.37
2018-12-14T13:22:44.326Z,56.25
2018-12-14T13:27:49.460Z,55.85
2018-12-14T13:32:54.737Z,54.22
2018-12-14T13:37:59.751Z,54.89
2018-12-14T13:43:04.811Z,53.86
2018-12-14T13:48:09.821Z,54.51
2018-12-14T13:53:14.775Z,55.65
2018-12-14T13:58:20.831Z,55.66
2018-12-14T14:03:25.924Z,56.88
2018-12-14T14:08:31.602Z,56.39
2018-12-14T14:13:36.927Z,56.37
2018-12-14T14:18:41.834Z,55.94
2018-12-14T14:23:46.747Z,56.36
2018-12-14T14:28:51.840Z,56.37
2018-12-14T14:33:56.886Z,56.18
2018-12-14T14:39:02.750Z,55.99
2018-12-14T14:44:10.114Z,56.59
2018-12-14T14:49:15.617Z,57.29
2018-12-14T14:54:20.829Z,58.70
2018-12-14T14:59:28.268Z,58.04
2018-12-14T15:04:33.400Z,58.31
2018-12-14T15:09:38.959Z,59.26
2018-12-14T15:14:44.803Z,59.16
2018-12-14T15:19:50.466Z,58.58
2018-12-14T15:24:56.265Z,59.15
2018-12-14T15:30:01.681Z,58.99
2018-12-14T15:35:08.269Z,60.07
2018-12-14T15:40:15.339Z,59.24
2018-12-14T15:45:21.140Z,58.41
2018-12-14T15:50:26.592Z,59.07
2018-12-14T15:55:31.575Z,58.99
2018-12-14T16:00:38.524Z,59.56
2018-12-14T16:05:46.431Z,60.21
2018-12-14T16:10:51.686Z,61.18
2018-12-14T16:15:56.751Z,60.78
2018-12-14T16:21:02.558Z,60.19
2018-12-14T16:26:07.925Z,61.27
2018-12-14T16:31:13.578Z,60.90
2018-12-14T16:36:18.576Z,60.86
2018-12-14T16:41:23.876Z,60.33
2018-12-14T16:46:28.888Z,61.56
2018-12-14T16:51:33.983Z,61.70
2018-12-14T16:56:38.990Z,61.83
2018-12-14T17:01:44.612Z,62.29
2018-12-14T17:06:50.448Z,62.04
2018-12-14T17:11:56.708Z,62.01
2018-12-14T17:17:02.833Z,61.49
2018-12-14T17:22:07.952Z,62.33
2018-12-14T17:27:14.087Z,62.09
2018-12-14T17:37:31.092Z,62.63
2018-12-14T17:42:38.425Z,64.08
2018-12-14T17:47:43.433Z,63.38
2018-12-14T17:52:49.575Z,63.29
2018-12-14T17:57:54.715Z,62.85
2018-12-14T18:02:59.747Z,63.40
2018-12-14T18:08:06.808Z,63.97
2018-12-14T18:13:13.413Z,63.11
2018-12-14T18:18:18.474Z,62.78
2018-12-14T18:23:24.285Z,63.34
2018-12-14T18:28:29.789Z,63.29
2018-12-14T18:33:36.077Z,64.04
2018-12-14T18:38:41.856Z,64.43
2018-12-14T18:43:48.346Z,64.84
2018-12-14T18:48:54.265Z,64.93
2018-12-14T18:54:00.950Z,65.44
2018-12-14T18:59:09.119Z,65.72
2018-12-14T19:04:15.714Z,64.81
2018-12-14T19:14:32.623Z,65.07
2018-12-14T19:19:38.052Z,65.25
2018-12-14T19:24:44.062Z,64.73
2018-12-14T19:29:49.634Z,64.52
2018-12-14T19:34:57.354Z,63.80
2018-12-14T19:40:03.656Z,63.90
2018-12-14T19:45:10.667Z,63.79
2018-12-14T19:50:17.227Z,63.81
2018-12-14T19:55:31.922Z,63.83
2018-12-14T20:00:37.749Z,63.66
2018-12-14T20:05:44.714Z,63.87
2018-12-14T20:10:49.992Z,63.76
2018-12-14T20:15:57.658Z,63.82
2018-12-14T20:21:03.736Z,63.40
2018-12-14T20:26:11.768Z,62.76
2018-12-14T20:31:21.387Z,62.59
2018-12-14T20:36:26.853Z,61.94
2018-12-14T20:41:33.040Z,62.54
2018-12-14T20:46:39.994Z,62.65
2018-12-14T20:51:45.616Z,63.32
2018-12-14T20:56:52.540Z,63.66
2018-12-14T21:02:02.145Z,64.94
2018-12-14T21:07:07.645Z,64.12
2018-12-14T21:12:13.089Z,64.53
2018-12-14T21:17:19.276Z,65.31
2018-12-14T21:22:25.537Z,65.22
2018-12-14T21:27:31.409Z,65.29
2018-12-14T21:32:37.125Z,66.82
2018-12-14T21:37:42.817Z,65.32
2018-12-14T21:42:48.518Z,65.06
2018-12-14T21:47:53.483Z,65.16
2018-12-14T21:52:58.775Z,64.64
2018-12-14T21:58:05.264Z,63.67
2018-12-14T22:03:10.494Z,64.05
2018-12-14T22:08:15.711Z,62.47
2018-12-14T22:13:21.141Z,62.67
2018-12-14T22:18:26.306Z,61.92
2018-12-14T22:23:32.275Z,60.67
2018-12-14T22:28:39.715Z,61.61
2018-12-14T22:33:45.736Z,61.23
2018-12-14T22:38:50.713Z,60.14
2018-12-14T22:43:56.022Z,60.93
2018-12-14T22:49:01.016Z,60.14
2018-12-14T22:54:06.418Z,60.87
2018-12-14T22:59:11.680Z,61.32
2018-12-14T23:04:16.711Z,60.56
2018-12-14T23:09:23.131Z,59.85
2018-12-14T23:19:38.850Z,59.62
2018-12-14T23:24:44.493Z,57.99
2018-12-14T23:29:49.537Z,59.22
2018-12-14T23:34:55.258Z,59.99
2018-12-14T23:40:00.278Z,60.18
2018-12-14T23:45:06.285Z,61.26
2018-12-14T23:50:11.266Z,60.87
